Arch Cape, Oregon
Current Conditions -  °F | °C
As of 10:55 AM on Thursday 30 Oct 2014 (Local Time) from KAST Reporting Station
Overcast Overcast  
Wind Chill: 16°   Ceiling: 3300
Heat Index: 16°   Visibility: 10mi
Dew Point: 13°   Wind: 7mph
Humidity: 86%   Direction: 120°ESE
Pressure: 29.8"   Gusts: NA
Location:  45.8°N, 123.96°W
Report Text: KAST 301755Z AUTO 12006KT 10SM FEW023 OVC033 16/13 A2980 RMK AO2 RAE36 SLP089 P0009 60023 T01560133 10156 20144 56008
Loading
Personal Weather Stations






























Interactive Weather Map
Tropical Storm Tracking
New forecast layout! Learn more

10-Day Weather Forecast

Advertisements
Track Severe Weather on mobile